Time;durP1;ratioP1;P1;durP2;ratioP2;P2;SDS_P1;SDS_P2;PMS_P1;PMS_P2;Temp;Humidity;BMP_temperature;BMP_pressure;BME280_temperature;BME280_humidity;BME280_pressure;Samples;Min_cycle;Max_cycle;Signal;HPM_P1;HPM_P2
2021/07/22 00:01:01;;;;;;;10.60;6.60;;;;;;;16.15;83.38;100957.81;4956111;28;20051;-57
2021/07/22 00:03:28;;;;;;;8.05;5.18;;;;;;;16.15;83.34;100956.94;4957308;28;20051;-59
2021/07/22 00:05:54;;;;;;;11.45;5.22;;;;;;;16.13;83.55;100959.81;4951810;28;20051;-58
2021/07/22 00:08:22;;;;;;;10.07;5.55;;;;;;;16.13;83.47;100948.16;4952070;28;20051;-58
2021/07/22 00:10:48;;;;;;;8.63;5.07;;;;;;;16.13;83.51;100954.41;4950919;28;20051;-61
2021/07/22 00:13:14;;;;;;;7.03;4.13;;;;;;;16.13;83.66;100953.56;4955157;29;20083;-59
2021/07/22 00:15:41;;;;;;;8.13;5.70;;;;;;;16.12;83.43;100954.56;4956009;29;20047;-59
2021/07/22 00:18:07;;;;;;;8.93;5.22;;;;;;;16.11;83.53;100951.03;4955123;29;20339;-61
2021/07/22 00:20:33;;;;;;;9.38;5.05;;;;;;;16.12;83.25;100954.56;4956595;28;20066;-60
2021/07/22 00:23:00;;;;;;;8.98;5.45;;;;;;;16.09;83.05;100943.03;4951422;28;20078;-61
2021/07/22 00:25:27;;;;;;;8.75;5.18;;;;;;;16.13;82.95;100950.84;4955983;28;20476;-59
2021/07/22 00:27:54;;;;;;;8.63;5.47;;;;;;;16.12;82.85;100947.31;4961339;28;20051;-60
2021/07/22 00:30:20;;;;;;;7.85;4.55;;;;;;;16.13;82.70;100946.28;4955552;28;20051;-61
2021/07/22 00:32:47;;;;;;;7.82;4.88;;;;;;;16.10;83.23;100946.59;4956632;28;20047;-59
2021/07/22 00:35:13;;;;;;;8.93;4.57;;;;;;;16.09;83.22;100945.75;4956887;28;20164;-60
2021/07/22 00:37:39;;;;;;;12.95;7.38;;;;;;;16.02;83.55;100949.28;4954110;28;20039;-58
2021/07/22 00:40:07;;;;;;;10.18;6.55;;;;;;;15.94;83.81;100950.06;4960382;28;20346;-59
2021/07/22 00:42:56;;;;;;;11.52;7.50;;;;;;;15.88;84.23;100950.75;4951008;28;20413;-57
2021/07/22 00:45:23;;;;;;;8.38;5.25;;;;;;;15.91;84.28;100944.16;4948818;28;20497;-63
2021/07/22 00:47:49;;;;;;;9.57;5.20;;;;;;;15.94;84.17;100952.78;4954319;28;20055;-60
2021/07/22 00:50:15;;;;;;;9.77;5.22;;;;;;;15.93;84.27;100951.09;4950401;28;20055;-60
2021/07/22 00:52:42;;;;;;;10.18;6.68;;;;;;;15.92;84.47;100945.84;4950272;28;20047;-60
2021/07/22 00:55:08;;;;;;;10.25;5.55;;;;;;;15.90;84.61;100950.56;4954314;28;20489;-59
2021/07/22 00:57:34;;;;;;;10.60;5.90;;;;;;;15.91;84.44;100947.72;4959848;28;20047;-59
2021/07/22 01:00:02;;;;;;;9.43;5.22;;;;;;;15.92;84.40;100938.56;4951923;28;20461;-56
2021/07/22 01:02:28;;;;;;;12.88;5.65;;;;;;;15.92;83.97;100935.88;4952582;28;20416;-62
2021/07/22 01:04:55;;;;;;;9.55;5.82;;;;;;;15.90;84.08;100937.88;4949022;28;20102;-58
2021/07/22 01:07:21;;;;;;;8.18;4.72;;;;;;;15.91;84.11;100938.75;4960159;28;20048;-59
2021/07/22 01:09:50;;;;;;;11.23;6.07;;;;;;;15.92;83.68;100937.72;4958204;28;20047;-59
2021/07/22 01:12:16;;;;;;;11.73;6.07;;;;;;;15.90;83.82;100943.31;4947772;28;20059;-60
2021/07/22 01:14:43;;;;;;;9.43;5.25;;;;;;;15.88;83.98;100933.66;4950889;28;20051;-60
2021/07/22 01:17:22;;;;;;;10.27;6.10;;;;;;;15.86;84.03;100941.91;4949154;28;20500;-62
2021/07/22 01:19:49;;;;;;;8.95;5.63;;;;;;;15.87;83.97;100940.09;4953096;28;20138;-61
2021/07/22 01:22:16;;;;;;;9.80;5.50;;;;;;;15.89;83.81;100935.34;4950888;28;20118;-57
2021/07/22 01:24:43;;;;;;;7.13;4.80;;;;;;;15.88;84.25;100934.50;4951383;28;20394;-60
2021/07/22 01:27:11;;;;;;;9.95;5.95;;;;;;;15.88;84.40;100937.22;4950932;28;20043;-60
2021/07/22 01:29:38;;;;;;;8.68;5.20;;;;;;;15.88;84.32;100937.22;4948782;28;20043;-59
2021/07/22 01:32:05;;;;;;;9.60;5.78;;;;;;;15.88;84.32;100939.06;4957767;28;20047;-59
2021/07/22 01:34:31;;;;;;;9.68;5.00;;;;;;;15.85;84.33;100937.50;4954167;28;20059;-61
2021/07/22 01:36:57;;;;;;;9.18;5.28;;;;;;;15.84;84.36;100933.09;4962384;28;20564;-58
2021/07/22 01:39:25;;;;;;;9.40;5.70;;;;;;;15.87;83.45;100934.66;4950712;28;20051;-59
2021/07/22 01:41:52;;;;;;;11.82;6.28;;;;;;;15.83;83.57;100923.28;4950656;28;20078;-60
2021/07/22 01:44:18;;;;;;;10.40;5.70;;;;;;;15.82;83.60;100932.44;4967026;28;20054;-57
2021/07/22 01:46:44;;;;;;;12.23;7.10;;;;;;;15.78;84.05;100931.06;4957769;28;20479;-59
2021/07/22 01:49:11;;;;;;;8.68;5.93;;;;;;;15.77;84.51;100929.38;4952738;28;20090;-59
2021/07/22 01:51:37;;;;;;;10.88;6.72;;;;;;;15.81;83.36;100919.91;4950181;28;20109;-59
2021/07/22 01:54:03;;;;;;;9.77;5.95;;;;;;;15.77;83.72;100922.09;4958569;28;20500;-61
2021/07/22 01:56:31;;;;;;;10.75;5.28;;;;;;;15.78;83.86;100931.06;4958323;28;20055;-60
2021/07/22 01:58:57;;;;;;;10.07;5.30;;;;;;;15.81;83.78;100932.59;4954711;28;20527;-61
2021/07/22 02:01:23;;;;;;;8.30;5.10;;;;;;;15.78;84.18;100929.19;4952252;28;20094;-59
2021/07/22 02:03:50;;;;;;;9.18;5.28;;;;;;;15.77;84.17;100924.81;4959942;28;20051;-59
2021/07/22 02:06:16;;;;;;;9.30;5.38;;;;;;;15.78;84.14;100929.19;4955490;28;20102;-60
2021/07/22 02:08:42;;;;;;;11.10;5.93;;;;;;;15.77;84.47;100934.78;4949992;28;20051;-60
2021/07/22 02:11:09;;;;;;;7.55;4.90;;;;;;;15.77;84.15;100932.06;4965760;28;20114;-60
2021/07/22 02:13:36;;;;;;;8.18;5.22;;;;;;;15.76;84.07;100927.69;4958503;28;20046;-60
2021/07/22 02:16:06;;;;;;;10.07;5.25;;;;;;;15.77;83.80;100934.78;4952434;28;20548;-60
2021/07/22 02:18:32;;;;;;;9.23;5.22;;;;;;;15.75;84.13;100929.53;4950714;28;20039;-57
2021/07/22 02:20:59;;;;;;;12.82;5.45;;;;;;;15.74;84.34;100921.53;4953750;28;20054;-60
2021/07/22 02:23:25;;;;;;;8.27;4.45;;;;;;;15.75;84.27;100924.13;4955837;28;20055;-60
2021/07/22 02:25:52;;;;;;;10.38;5.95;;;;;;;15.75;84.37;100931.41;4966953;28;20043;-60
2021/07/22 02:28:18;;;;;;;14.05;7.18;;;;;;;15.70;84.61;100931.00;4959210;28;20085;-60
2021/07/22 02:30:46;;;;;;;12.80;7.78;;;;;;;15.60;85.24;100924.84;4965682;28;20129;-58
2021/07/22 02:33:12;;;;;;;16.25;8.32;;;;;;;15.52;85.64;100925.66;4963056;28;20497;-61
2021/07/22 02:35:38;;;;;;;9.57;6.00;;;;;;;15.49;85.59;100929.50;4950379;28;20051;-55
2021/07/22 02:38:04;;;;;;;10.15;6.13;;;;;;;15.50;85.68;100935.75;4957668;28;20051;-58
2021/07/22 02:40:31;;;;;;;11.05;6.25;;;;;;;15.52;85.79;100933.75;4956151;28;20109;-58
2021/07/22 02:42:58;;;;;;;9.68;5.85;;;;;;;15.55;85.35;100933.44;4954442;28;20082;-57
2021/07/22 02:45:24;;;;;;;11.07;6.63;;;;;;;15.59;84.53;100931.25;4958472;28;20122;-58
2021/07/22 02:47:51;;;;;;;12.02;6.50;;;;;;;15.66;84.04;100932.34;4951727;28;20540;-57
2021/07/22 02:50:18;;;;;;;10.10;6.05;;;;;;;15.63;84.24;100930.81;4951053;28;20055;-57
2021/07/22 02:52:44;;;;;;;9.27;5.80;;;;;;;15.63;84.04;100929.97;4948303;28;20070;-59
2021/07/22 02:55:12;;;;;;;10.35;6.43;;;;;;;15.61;84.51;100924.69;4953610;28;20459;-57
2021/07/22 02:57:38;;;;;;;8.18;4.80;;;;;;;15.63;84.25;100929.97;4949173;28;20079;-58
2021/07/22 03:00:07;;;;;;;8.73;5.28;;;;;;;15.64;84.15;100931.66;4958182;28;20043;-58
2021/07/22 03:02:33;;;;;;;9.68;5.70;;;;;;;15.62;84.62;100939.06;4957192;28;20105;-57
2021/07/22 03:05:01;;;;;;;11.20;6.07;;;;;;;15.66;83.66;100935.06;4956002;28;20074;-59
2021/07/22 03:07:27;;;;;;;11.40;5.95;;;;;;;15.70;83.88;100931.00;4960373;28;20057;-59
2021/07/22 03:09:53;;;;;;;10.27;6.32;;;;;;;15.67;84.03;100936.75;4951428;28;20043;-56
2021/07/22 03:12:20;;;;;;;11.77;6.80;;;;;;;15.71;83.89;100938.13;4953796;28;20134;-56
2021/07/22 03:14:46;;;;;;;10.13;6.38;;;;;;;15.69;83.87;100940.13;4951354;28;20478;-57
2021/07/22 03:17:12;;;;;;;10.68;5.55;;;;;;;15.68;83.94;100943.84;4949525;28;20247;-58
2021/07/22 03:19:38;;;;;;;11.15;6.50;;;;;;;15.68;83.57;100936.59;4958036;28;20043;-59
2021/07/22 03:22:06;;;;;;;11.82;5.78;;;;;;;15.71;83.58;100933.56;4952212;28;20078;-56
2021/07/22 03:24:33;;;;;;;11.05;6.13;;;;;;;15.71;83.61;100932.69;4951001;28;20059;-57
2021/07/22 03:26:59;;;;;;;12.30;5.80;;;;;;;15.69;83.96;100923.91;4944850;28;20130;-58
2021/07/22 03:29:26;;;;;;;10.82;5.68;;;;;;;15.66;84.29;100924.22;4948721;28;20503;-58
2021/07/22 03:31:52;;;;;;;9.43;5.82;;;;;;;15.64;84.47;100931.66;4959100;28;20114;-55
2021/07/22 03:34:19;;;;;;;9.18;5.78;;;;;;;15.63;84.52;100929.97;4952623;28;20051;-60
2021/07/22 03:36:45;;;;;;;10.27;5.70;;;;;;;15.64;84.23;100920.84;4958898;28;20115;-57
2021/07/22 03:39:13;;;;;;;10.45;5.75;;;;;;;15.64;84.35;100923.56;4952697;28;20135;-59
2021/07/22 03:41:47;;;;;;;9.00;6.03;;;;;;;15.61;85.01;100930.09;4954295;28;20482;-60
2021/07/22 03:44:13;;;;;;;10.52;5.43;;;;;;;15.61;85.39;100926.56;4949104;28;20509;-60
2021/07/22 03:46:39;;;;;;;9.00;4.97;;;;;;;15.61;85.35;100927.41;4951901;28;20047;-59
2021/07/22 03:49:06;;;;;;;10.18;4.93;;;;;;;15.63;85.42;100920.00;4951714;28;20075;-58
2021/07/22 03:51:32;;;;;;;7.20;4.32;;;;;;;15.65;85.38;100919.84;4951483;28;20106;-59
2021/07/22 03:53:59;;;;;;;8.00;5.45;;;;;;;15.66;85.30;100929.66;4961243;28;20055;-60
2021/07/22 03:56:27;;;;;;;11.07;6.43;;;;;;;15.69;84.25;100924.75;4953675;28;20117;-60
2021/07/22 03:58:53;;;;;;;9.77;5.22;;;;;;;15.69;84.49;100930.16;4960261;28;20101;-58
2021/07/22 04:01:19;;;;;;;7.20;4.68;;;;;;;15.70;84.45;100926.44;4953320;28;20055;-59
2021/07/22 04:03:46;;;;;;;7.00;4.57;;;;;;;15.72;84.66;100926.28;4951928;28;20070;-60
2021/07/22 04:06:12;;;;;;;8.68;5.55;;;;;;;15.75;84.31;100932.25;4965154;28;20054;-58
2021/07/22 04:08:40;;;;;;;10.57;5.55;;;;;;;15.78;84.21;100934.63;4954129;28;20055;-58
2021/07/22 04:11:07;;;;;;;7.82;4.80;;;;;;;15.82;84.32;100928.88;4959406;28;20047;-58
2021/07/22 04:13:34;;;;;;;12.93;6.75;;;;;;;15.81;84.84;100922.63;4950790;28;20051;-61
2021/07/22 04:16:02;;;;;;;10.55;5.90;;;;;;;15.84;84.80;100925.00;4961626;28;20054;-60
2021/07/22 04:18:28;;;;;;;8.73;5.47;;;;;;;15.86;84.58;100922.97;4958022;28;20055;-60
2021/07/22 04:20:55;;;;;;;7.97;5.13;;;;;;;15.90;84.08;100921.66;4960093;28;20055;-59
2021/07/22 04:23:21;;;;;;;10.60;5.20;;;;;;;15.95;83.83;100918.44;4950383;28;20461;-58
2021/07/22 04:25:48;;;;;;;8.73;4.75;;;;;;;15.98;83.32;100929.81;4952271;28;20054;-59
2021/07/22 04:28:14;;;;;;;10.23;6.25;;;;;;;16.03;83.26;100927.44;4950897;28;20074;-57
2021/07/22 04:30:42;;;;;;;11.55;5.13;;;;;;;16.07;83.95;100928.81;4952382;28;20125;-59
2021/07/22 04:33:09;;;;;;;9.38;5.53;;;;;;;16.09;84.00;100918.66;4962465;28;20047;-59
2021/07/22 04:35:35;;;;;;;9.43;5.65;;;;;;;16.13;83.99;100927.31;4949520;28;20535;-58
2021/07/22 04:38:01;;;;;;;9.98;5.07;;;;;;;16.17;83.67;100922.44;4951031;28;20055;-58
2021/07/22 04:40:28;;;;;;;8.38;5.90;;;;;;;16.21;83.24;100921.06;4951209;28;20058;-61
2021/07/22 04:42:54;;;;;;;11.10;6.93;;;;;;;16.23;83.52;100921.78;4950839;28;20498;-59
2021/07/22 04:45:20;;;;;;;13.85;7.45;;;;;;;16.21;83.53;100918.38;4963497;28;20055;-60
2021/07/22 04:47:48;;;;;;;14.27;8.45;;;;;;;16.15;83.68;100913.63;4956010;28;20525;-59
2021/07/22 04:50:14;;;;;;;15.13;7.82;;;;;;;16.14;84.27;100912.78;4959335;28;20097;-60
2021/07/22 04:52:40;;;;;;;14.38;7.22;;;;;;;16.18;84.30;100913.28;4956856;28;20432;-58
2021/07/22 04:55:07;;;;;;;14.05;7.68;;;;;;;16.23;84.48;100913.66;4951587;28;20126;-60
2021/07/22 04:57:34;;;;;;;9.88;6.03;;;;;;;16.32;84.33;100915.34;4948821;28;20141;-60
2021/07/22 05:00:00;;;;;;;11.75;6.22;;;;;;;16.44;83.89;100918.59;4947853;28;20051;-60
2021/07/22 05:02:26;;;;;;;10.52;5.72;;;;;;;16.52;83.34;100919.47;4952163;28;20102;-59
2021/07/22 05:04:54;;;;;;;13.02;6.93;;;;;;;16.63;83.50;100916.44;4967553;28;20466;-60
2021/07/22 05:07:20;;;;;;;16.77;8.25;;;;;;;16.71;83.02;100923.78;4975479;23;20043;-59
2021/07/22 05:09:46;;;;;;;13.80;8.23;;;;;;;16.79;82.61;100918.34;4988752;28;20051;-61
2021/07/22 05:12:13;;;;;;;11.23;6.93;;;;;;;16.89;82.18;100923.63;4991271;28;20050;-61
2021/07/22 05:14:39;;;;;;;13.18;7.43;;;;;;;16.94;81.99;100923.97;4994214;28;20105;-56
2021/07/22 05:17:06;;;;;;;13.13;8.18;;;;;;;17.06;82.18;100924.50;4990380;28;21438;-57
2021/07/22 05:19:32;;;;;;;14.45;7.72;;;;;;;17.16;81.61;100922.41;4987773;28;20046;-57
2021/07/22 05:22:00;;;;;;;13.07;8.40;;;;;;;17.23;80.33;100921.59;4990119;28;20096;-57
2021/07/22 05:24:26;;;;;;;15.77;8.85;;;;;;;17.33;79.77;100920.56;4989066;28;20062;-58
2021/07/22 05:26:53;;;;;;;13.15;7.97;;;;;;;17.39;79.81;100920.72;4987168;28;20124;-57
2021/07/22 05:29:19;;;;;;;17.27;8.98;;;;;;;17.39;80.42;100923.41;4990855;28;20113;-58
2021/07/22 05:31:45;;;;;;;13.82;7.53;;;;;;;17.50;80.18;100922.22;4987811;28;20136;-58
2021/07/22 05:34:12;;;;;;;11.77;7.75;;;;;;;17.62;80.18;100915.41;4987196;28;20046;-58
2021/07/22 05:36:39;;;;;;;15.32;8.63;;;;;;;17.75;79.50;100921.16;4985713;28;20039;-59
2021/07/22 05:39:07;;;;;;;10.75;7.25;;;;;;;17.89;78.92;100916.06;4985768;28;20085;-59
2021/07/22 05:41:33;;;;;;;12.05;7.50;;;;;;;18.07;78.77;100922.06;5036142;22;20050;-79
2021/07/22 05:44:00;;;;;;;13.25;6.80;;;;;;;18.16;77.51;100923.75;4988882;28;20140;-78
2021/07/22 05:46:26;;;;;;;12.50;7.40;;;;;;;18.34;75.97;100921.59;4990449;28;20054;-79
2021/07/22 05:48:53;;;;;;;15.90;7.97;;;;;;;18.41;76.71;100921.75;4985388;28;20508;-78
2021/07/22 05:51:20;;;;;;;11.70;7.90;;;;;;;18.55;76.44;100911.97;4990788;28;20462;-78
2021/07/22 05:53:46;;;;;;;14.23;8.50;;;;;;;18.68;75.55;100920.41;4992725;28;20449;-78
2021/07/22 05:56:18;;;;;;;13.90;7.95;;;;;;;18.74;76.40;100921.56;4992375;28;20054;-80
2021/07/22 05:58:44;;;;;;;12.10;7.50;;;;;;;18.88;75.54;100926.22;4992888;28;20507;-79
2021/07/22 06:01:11;;;;;;;12.43;7.97;;;;;;;19.05;74.09;100924.19;4993268;28;20158;-78
2021/07/22 06:03:38;;;;;;;14.15;8.45;;;;;;;19.13;74.33;100925.00;4994892;28;20054;-79
2021/07/22 06:06:06;;;;;;;12.65;8.00;;;;;;;19.21;70.91;100921.34;4994201;28;20109;-78
2021/07/22 06:08:34;;;;;;;10.65;6.72;;;;;;;19.43;71.63;100922.34;4987988;28;20081;-79
2021/07/22 06:11:01;;;;;;;15.20;7.78;;;;;;;19.47;70.50;100920.94;4993164;28;20047;-79
2021/07/22 06:13:28;;;;;;;15.25;7.95;;;;;;;19.54;69.74;100924.63;4985398;28;20475;-81
2021/07/22 06:15:57;;;;;;;13.75;8.32;;;;;;;19.58;69.86;100922.38;4991374;28;20102;-78
2021/07/22 06:18:23;;;;;;;14.18;7.38;;;;;;;19.63;69.47;100918.06;4992676;28;20050;-76
2021/07/22 06:20:50;;;;;;;15.68;8.48;;;;;;;19.81;68.42;100918.56;4991771;28;20046;-78
2021/07/22 06:23:16;;;;;;;10.10;6.85;;;;;;;19.93;69.09;100921.66;4984512;28;20103;-79
2021/07/22 06:25:43;;;;;;;12.00;7.70;;;;;;;20.11;68.59;100922.09;4983591;28;20093;-81
2021/07/22 06:28:09;;;;;;;13.93;8.88;;;;;;;20.09;69.82;100920.59;4985256;28;20042;-78
2021/07/22 06:30:38;;;;;;;13.15;8.07;;;;;;;20.38;69.13;100922.44;4984240;28;20144;-80
2021/07/22 06:33:04;;;;;;;15.82;8.98;;;;;;;20.27;68.78;100918.31;4991554;28;20038;-77
2021/07/22 06:35:31;;;;;;;12.18;8.30;;;;;;;20.35;68.35;100918.19;4990524;28;20105;-77
2021/07/22 06:37:58;;;;;;;12.32;7.05;;;;;;;20.67;67.77;100916.91;4988707;28;20046;-77
2021/07/22 06:40:25;;;;;;;14.93;7.70;;;;;;;20.77;65.74;100926.66;4990795;28;20060;-79
2021/07/22 06:42:52;;;;;;;10.13;7.43;;;;;;;20.86;66.34;100917.31;4985975;28;20100;-78
2021/07/22 06:45:18;;;;;;;14.60;8.35;;;;;;;20.54;65.16;100922.22;4993680;28;20051;-79
2021/07/22 06:47:46;;;;;;;13.50;8.00;;;;;;;20.76;64.91;100914.06;4989545;28;20050;-79
2021/07/22 06:50:13;;;;;;;14.30;8.27;;;;;;;20.91;64.54;100918.41;4992374;28;20046;-78
2021/07/22 06:52:39;;;;;;;10.88;7.35;;;;;;;21.05;64.07;100918.53;4991656;28;20060;-78
2021/07/22 06:55:08;;;;;;;14.02;8.77;;;;;;;20.97;64.63;100905.88;4992586;28;20042;-77
2021/07/22 06:57:35;;;;;;;16.55;8.45;;;;;;;20.92;65.45;100919.25;4991013;28;20731;-78
2021/07/22 07:00:01;;;;;;;14.63;9.15;;;;;;;20.79;65.29;100928.16;4985936;28;20042;-77
2021/07/22 07:02:28;;;;;;;12.18;7.55;;;;;;;21.00;65.07;100927.31;4992058;28;20467;-77
2021/07/22 07:04:56;;;;;;;15.25;8.25;;;;;;;21.11;64.52;100929.53;4980187;28;20050;-76
2021/07/22 07:07:22;;;;;;;14.15;8.40;;;;;;;20.84;63.54;100922.13;4994422;28;20054;-78
2021/07/22 07:09:49;;;;;;;14.48;8.82;;;;;;;20.77;65.01;100927.50;4992542;28;20042;-77
2021/07/22 07:12:16;;;;;;;13.45;7.43;;;;;;;20.74;63.94;100933.34;4991562;28;20052;-77
2021/07/22 07:14:43;;;;;;;11.98;7.57;;;;;;;20.63;63.31;100931.97;4981820;28;20065;-79
2021/07/22 07:17:09;;;;;;;8.98;5.93;;;;;;;20.65;62.68;100935.34;4990299;28;20113;-78
2021/07/22 07:19:36;;;;;;;10.10;6.50;;;;;;;20.78;62.03;100940.09;4983295;28;20058;-80
2021/07/22 07:22:04;;;;;;;9.85;6.95;;;;;;;20.87;62.40;100941.69;4989125;28;20424;-77
2021/07/22 07:24:31;;;;;;;12.38;7.88;;;;;;;20.79;62.86;100930.88;4990271;28;20109;-77
2021/07/22 07:26:58;;;;;;;11.90;7.80;;;;;;;21.24;59.65;100928.78;4990257;28;20504;-80
2021/07/22 07:29:24;;;;;;;10.85;6.82;;;;;;;21.85;58.25;100935.34;4989247;28;20451;-78
2021/07/22 07:31:50;;;;;;;13.60;7.55;;;;;;;22.64;55.56;100932.16;4988621;28;20104;-80
2021/07/22 07:34:17;;;;;;;10.73;6.57;;;;;;;23.15;53.50;100925.31;4988622;28;20054;-80
2021/07/22 07:36:44;;;;;;;11.85;7.80;;;;;;;23.22;54.40;100928.91;4990570;28;20587;-80
2021/07/22 07:39:14;;;;;;;11.20;6.93;;;;;;;23.36;53.49;100924.25;4986891;28;20126;-79
2021/07/22 07:41:40;;;;;;;16.38;7.95;;;;;;;23.29;54.56;100929.72;4985206;28;20108;-81
2021/07/22 07:44:07;;;;;;;12.38;8.50;;;;;;;22.75;53.77;100922.50;4988672;28;20087;-81
2021/07/22 07:46:33;;;;;;;10.88;7.32;;;;;;;22.48;57.16;100921.56;4988003;28;20085;-78
2021/07/22 07:49:00;;;;;;;17.38;7.30;;;;;;;22.27;54.03;100919.84;4983558;28;20051;-78
2021/07/22 07:51:26;;;;;;;12.80;7.20;;;;;;;22.64;52.93;100918.47;4990693;28;20058;-79
2021/07/22 07:53:53;;;;;;;9.13;6.10;;;;;;;22.83;54.60;100929.66;4988542;28;20046;-81
2021/07/22 07:56:21;;;;;;;10.13;6.30;;;;;;;22.82;54.03;100922.50;4989602;28;20495;-80
2021/07/22 07:58:48;;;;;;;11.02;7.57;;;;;;;22.83;55.23;100916.84;4989015;28;20108;-78
2021/07/22 08:01:15;;;;;;;11.13;7.22;;;;;;;22.41;54.98;100918.81;4990035;28;20526;-82
2021/07/22 08:03:42;;;;;;;12.60;7.28;;;;;;;22.51;53.96;100920.34;4991768;28;20792;-79
2021/07/22 08:06:08;;;;;;;13.77;8.02;;;;;;;22.62;53.95;100922.47;4990763;28;20054;-79
2021/07/22 08:08:35;;;;;;;13.45;7.25;;;;;;;22.79;54.04;100912.81;4988095;28;20130;-78
2021/07/22 08:11:02;;;;;;;12.52;7.72;;;;;;;22.76;53.07;100910.50;4988973;28;20038;-78
2021/07/22 08:13:29;;;;;;;11.70;7.57;;;;;;;22.86;53.02;100913.72;4980747;28;20047;-81
2021/07/22 08:15:56;;;;;;;11.50;7.47;;;;;;;23.04;53.64;100905.72;4992377;28;20051;-77
2021/07/22 08:18:23;;;;;;;11.38;7.03;;;;;;;23.11;52.90;100908.47;4993679;28;20629;-79
2021/07/22 08:20:49;;;;;;;12.77;7.18;;;;;;;23.26;52.74;100906.34;4991744;28;20057;-80
2021/07/22 08:23:16;;;;;;;11.57;7.00;;;;;;;23.29;50.88;100905.06;4992122;28;20054;-77
2021/07/22 08:25:42;;;;;;;12.90;8.35;;;;;;;23.47;50.98;100910.75;4991670;28;20057;-79
2021/07/22 08:28:17;;;;;;;10.15;6.93;;;;;;;23.74;51.04;100906.09;4995772;28;20054;-77
2021/07/22 08:30:45;;;;;;;13.05;7.63;;;;;;;23.51;50.52;100902.97;4995148;28;20074;-78
2021/07/22 08:33:12;;;;;;;11.98;7.97;;;;;;;23.63;50.63;100902.13;4992997;28;20423;-79
2021/07/22 08:35:39;;;;;;;12.35;7.88;;;;;;;23.14;51.84;100902.56;4987116;28;20484;-80
2021/07/22 08:38:05;;;;;;;13.63;7.53;;;;;;;23.15;50.63;100895.19;4994055;28;20057;-78
2021/07/22 08:40:32;;;;;;;13.95;8.77;;;;;;;23.24;52.36;100893.94;4987182;28;20503;-78
2021/07/22 08:43:03;;;;;;;12.52;8.32;;;;;;;23.36;53.19;100891.41;4993378;28;20117;-83
2021/07/22 08:45:30;;;;;;;10.57;7.47;;;;;;;23.60;52.22;100893.50;4992767;28;20050;-77
2021/07/22 08:47:58;;;;;;;16.13;8.70;;;;;;;24.27;49.90;100891.34;4991504;28;20046;-78
2021/07/22 08:50:25;;;;;;;11.05;7.75;;;;;;;24.60;50.99;100889.31;4986073;28;20424;-78
2021/07/22 08:52:52;;;;;;;10.68;7.40;;;;;;;24.95;48.37;100880.63;4981117;28;20054;-77
2021/07/22 08:55:18;;;;;;;15.65;9.00;;;;;;;24.56;48.21;100884.50;4989890;28;20306;-76
2021/07/22 08:57:46;;;;;;;12.35;8.43;;;;;;;24.49;49.00;100879.88;4991236;28;20054;-78
2021/07/22 09:00:15;;;;;;;14.63;9.52;;;;;;;23.81;48.46;100878.69;4995675;28;20073;-79
2021/07/22 09:02:43;;;;;;;12.80;8.82;;;;;;;23.44;50.49;100883.81;4989296;28;20065;-79
2021/07/22 09:05:12;;;;;;;15.48;8.38;;;;;;;23.53;51.52;100881.66;4988083;28;20050;-77
2021/07/22 09:07:38;;;;;;;12.65;7.90;;;;;;;23.33;51.73;100889.94;4990947;28;20060;-79
2021/07/22 09:10:13;;;;;;;16.30;9.63;;;;;;;23.50;51.59;100882.09;4990334;28;20042;-80
2021/07/22 09:12:42;;;;;;;11.38;7.78;;;;;;;23.80;49.94;100882.50;4986739;28;20046;-79
2021/07/22 09:15:10;;;;;;;10.32;6.85;;;;;;;24.38;50.82;100876.97;4988145;28;20050;-79
2021/07/22 09:17:37;;;;;;;14.02;7.85;;;;;;;24.50;47.94;100877.97;4991668;28;20050;-77
2021/07/22 09:20:05;;;;;;;14.77;8.88;;;;;;;24.01;49.14;100868.47;4989459;28;20500;-79
2021/07/22 09:22:37;;;;;;;15.43;9.43;;;;;;;23.53;48.51;100871.53;4987847;28;20078;-77
2021/07/22 09:25:04;;;;;;;13.25;8.48;;;;;;;23.32;49.49;100875.38;4988293;28;20074;-79
2021/07/22 09:27:39;;;;;;;13.30;8.20;;;;;;;23.38;50.54;100870.94;4991703;28;20054;-78
2021/07/22 09:30:07;;;;;;;13.48;8.55;;;;;;;23.10;50.55;100878.56;4988432;28;20050;-79
2021/07/22 09:32:34;;;;;;;14.95;8.35;;;;;;;23.16;50.83;100875.81;4991857;28;20058;-78
2021/07/22 09:35:12;;;;;;;12.77;8.13;;;;;;;23.09;50.10;100871.38;4987334;28;20054;-78
2021/07/22 09:37:45;;;;;;;15.93;8.32;;;;;;;22.75;51.66;100873.25;4990464;28;20061;-79
2021/07/22 09:40:16;;;;;;;12.98;8.25;;;;;;;22.58;52.87;100885.63;4985189;28;21143;-80
2021/07/22 09:42:45;;;;;;;13.38;8.48;;;;;;;22.30;53.88;100874.81;4991835;28;20070;-80
2021/07/22 09:45:17;;;;;;;13.05;7.80;;;;;;;22.02;54.63;100872.13;4986405;28;20070;-80
2021/07/22 09:47:44;;;;;;;12.73;8.25;;;;;;;21.83;54.72;100874.59;4987284;28;20170;-80
2021/07/22 09:50:13;;;;;;;11.82;7.97;;;;;;;21.59;58.06;100872.34;4988161;28;20050;-79
2021/07/22 09:52:40;;;;;;;13.05;8.02;;;;;;;21.50;56.82;100868.94;4991508;28;20055;-78
2021/07/22 09:55:32;;;;;;;12.05;8.65;;;;;;;21.32;57.88;100876.81;4989010;28;20076;-79
2021/07/22 09:58:00;;;;;;;11.27;7.72;;;;;;;21.28;57.34;100876.34;4987602;28;20138;-79
2021/07/22 10:00:28;;;;;;;12.15;7.68;;;;;;;21.24;57.01;100875.03;4990876;28;20062;-78
2021/07/22 10:02:56;;;;;;;14.10;8.90;;;;;;;21.16;57.71;100872.44;4987911;28;20054;-78
2021/07/22 10:05:25;;;;;;;11.70;7.13;;;;;;;21.10;60.18;100881.44;4991559;28;20058;-78
2021/07/22 10:07:53;;;;;;;11.52;7.80;;;;;;;21.06;58.82;100871.09;4990964;28;20057;-79
2021/07/22 10:10:24;;;;;;;12.75;8.07;;;;;;;21.05;59.80;100875.72;4989691;28;20073;-80
2021/07/22 10:12:55;;;;;;;13.23;7.70;;;;;;;21.03;59.67;100869.59;4989022;28;20046;-79
2021/07/22 10:15:26;;;;;;;14.45;8.07;;;;;;;21.03;58.84;100875.91;4991284;28;20061;-79
2021/07/22 10:17:55;;;;;;;10.55;6.95;;;;;;;20.92;59.86;100878.31;4990576;28;20458;-77
2021/07/22 10:20:23;;;;;;;12.95;8.57;;;;;;;20.91;60.33;100868.44;4989225;28;20078;-78
2021/07/22 10:22:52;;;;;;;13.27;7.78;;;;;;;20.85;61.36;100870.09;4987160;28;20512;-78
2021/07/22 10:25:18;;;;;;;14.05;8.82;;;;;;;20.80;63.16;100874.44;4991739;28;20056;-79
2021/07/22 10:27:45;;;;;;;11.70;8.00;;;;;;;20.80;61.97;100872.56;4988467;28;20062;-79
2021/07/22 10:30:17;;;;;;;16.27;8.07;;;;;;;20.90;61.30;100877.69;4990196;28;20582;-78
2021/07/22 10:32:47;;;;;;;11.20;7.88;;;;;;;20.72;62.35;100876.28;4988477;28;20052;-80
2021/07/22 10:35:15;;;;;;;14.38;7.22;;;;;;;20.66;63.08;100874.31;4988215;28;20061;-80
2021/07/22 10:38:03;;;;;;;14.45;8.25;;;;;;;20.81;61.61;100866.06;4991487;28;20050;-79
2021/07/22 10:40:47;;;;;;;12.35;8.10;;;;;;;20.78;61.72;100873.78;4991024;28;20054;-81
2021/07/22 10:43:36;;;;;;;12.18;7.30;;;;;;;20.64;62.26;100870.09;4986574;28;20054;-79
2021/07/22 10:46:04;;;;;;;11.75;7.63;;;;;;;20.62;62.55;100873.03;4984254;28;20053;-78
2021/07/22 10:48:31;;;;;;;10.10;6.70;;;;;;;20.51;62.79;100865.34;4987061;28;20077;-78
2021/07/22 10:51:02;;;;;;;13.73;8.73;;;;;;;20.51;63.26;100862.63;4987193;28;20058;-76
2021/07/22 10:53:37;;;;;;;11.70;7.10;;;;;;;20.55;63.57;100869.38;4987622;28;20050;-80
2021/07/22 10:56:04;;;;;;;8.75;6.40;;;;;;;20.52;63.74;100864.31;4985430;28;20054;-79
2021/07/22 10:58:56;;;;;;;14.05;8.35;;;;;;;20.55;63.45;100863.91;4989264;28;20464;-80
2021/07/22 11:01:59;;;;;;;13.98;8.48;;;;;;;20.51;65.91;100868.09;4983748;28;20162;-78
2021/07/22 11:04:42;;;;;;;12.98;8.57;;;;;;;;;;4981370;28;20462;-78
2021/07/22 11:07:16;;;;;;;10.80;6.68;;;;;;;20.59;65.67;100865.22;4986092;28;20358;-77
2021/07/22 11:09:43;;;;;;;9.80;6.38;;;;;;;20.64;64.75;100862.75;4984144;28;20056;-77
2021/07/22 11:12:10;;;;;;;14.70;9.38;;;;;;;20.69;63.20;100860.28;4990161;28;20054;-77
2021/07/22 11:14:37;;;;;;;12.90;8.70;;;;;;;20.77;63.85;100858.47;4993580;28;20053;-77
2021/07/22 11:17:08;;;;;;;14.10;8.13;;;;;;;20.83;64.93;100858.50;4998879;28;20134;-76
2021/07/22 11:19:34;;;;;;;10.43;6.20;;;;;;;20.94;63.51;100860.72;4995006;28;20459;-77
2021/07/22 11:22:02;;;;;;;10.23;5.63;;;;;;;21.06;62.02;100850.09;4998206;28;20104;-78